Time;durP1;ratioP1;P1;durP2;ratioP2;P2;SDS_P1;SDS_P2;PMS_P1;PMS_P2;Temp;Humidity;BMP_temperature;BMP_pressure;BME280_temperature;BME280_humidity;BME280_pressure;Samples;Min_cycle;Max_cycle;Signal;HPM_P1;HPM_P2
2021/07/18 00:02:08;;;;;;;14.20;12.90;;;23.40;47.90;;;;;;10449954;28;20229;-74
2021/07/18 00:07:11;;;;;;;13.00;11.90;;;23.30;48.10;;;;;;10446100;28;20232;-74
2021/07/18 00:12:14;;;;;;;12.53;11.47;;;23.30;47.80;;;;;;10451412;28;20670;-74
2021/07/18 00:17:19;;;;;;;13.17;11.90;;;23.30;47.80;;;;;;10444513;28;20218;-73
2021/07/18 00:22:22;;;;;;;12.10;10.80;;;23.30;48.00;;;;;;10450523;28;20241;-74
2021/07/18 00:27:25;;;;;;;10.93;10.03;;;23.20;47.60;;;;;;10448277;28;20236;-74
2021/07/18 00:32:30;;;;;;;9.80;9.00;;;23.30;47.60;;;;;;10444708;28;20228;-74
2021/07/18 00:37:33;;;;;;;10.03;8.87;;;23.30;47.60;;;;;;10447070;28;20221;-74
2021/07/18 00:42:36;;;;;;;10.97;8.07;;;23.30;47.20;;;;;;10448181;28;20228;-75
2021/07/18 00:47:42;;;;;;;8.50;7.80;;;23.20;47.00;;;;;;10436787;28;20216;-74
2021/07/18 00:52:46;;;;;;;7.83;7.20;;;23.20;47.30;;;;;;10444536;28;20236;-74
2021/07/18 00:57:51;;;;;;;7.83;6.93;;;23.20;47.10;;;;;;10443073;28;20235;-74
2021/07/18 01:02:56;;;;;;;7.73;7.03;;;23.20;46.90;;;;;;10446968;28;20229;-74
2021/07/18 01:08:00;;;;;;;7.43;6.73;;;23.20;46.90;;;;;;10439553;28;20232;-74
2021/07/18 01:13:03;;;;;;;7.03;6.33;;;23.20;46.70;;;;;;10443436;28;20230;-73
2021/07/18 01:18:15;;;;;;;7.90;6.37;;;23.20;46.70;;;;;;10446356;28;20259;-74
2021/07/18 01:23:20;;;;;;;7.03;6.33;;;23.20;46.50;;;;;;10446877;28;20727;-74
2021/07/18 01:28:23;;;;;;;6.83;5.80;;;23.20;46.40;;;;;;10442100;28;20239;-75
2021/07/18 01:33:27;;;;;;;6.00;5.40;;;23.20;46.20;;;;;;10444670;28;20224;-74
2021/07/18 01:38:32;;;;;;;6.23;5.63;;;23.20;46.20;;;;;;10441622;28;20223;-74
2021/07/18 01:43:35;;;;;;;6.80;5.27;;;23.10;45.90;;;;;;10443876;28;20243;-74
2021/07/18 01:48:38;;;;;;;5.67;5.17;;;23.10;45.90;;;;;;10452341;28;20217;-75
2021/07/18 01:53:43;;;;;;;5.80;5.23;;;23.10;45.60;;;;;;10442452;28;20600;-75
2021/07/18 01:58:47;;;;;;;5.00;4.57;;;23.10;45.40;;;;;;10439897;28;20559;-75
2021/07/18 02:03:51;;;;;;;4.73;4.30;;;23.10;45.40;;;;;;10448148;28;20236;-75
2021/07/18 02:08:58;;;;;;;4.93;4.43;;;23.10;45.40;;;;;;10441409;28;20225;-75
2021/07/18 02:14:04;;;;;;;5.20;4.50;;;23.10;45.40;;;;;;10442529;28;20221;-75
2021/07/18 02:19:08;;;;;;;7.23;4.43;;;23.20;45.20;;;;;;10446685;28;20224;-74
2021/07/18 02:24:13;;;;;;;4.60;4.20;;;23.20;44.90;;;;;;10448524;28;20230;-74
2021/07/18 02:29:16;;;;;;;5.43;4.20;;;23.10;44.70;;;;;;10453322;28;20232;-74
2021/07/18 02:34:19;;;;;;;4.37;3.97;;;23.10;44.70;;;;;;10453227;28;20225;-75
2021/07/18 02:39:24;;;;;;;9.27;4.27;;;23.10;44.60;;;;;;10448558;28;20237;-75
2021/07/18 02:44:27;;;;;;;4.63;4.00;;;23.20;44.40;;;;;;10443116;28;20232;-75
2021/07/18 02:49:30;;;;;;;5.93;4.37;;;23.00;44.60;;;;;;10449140;28;20577;-75
2021/07/18 02:54:35;;;;;;;7.77;3.63;;;23.00;44.60;;;;;;10441032;28;20222;-75
2021/07/18 02:59:38;;;;;;;5.43;4.20;;;23.00;44.40;;;;;;10449960;28;20597;-75
2021/07/18 03:04:41;;;;;;;5.50;3.70;;;23.00;44.50;;;;;;10444567;28;20709;-75
2021/07/18 03:09:45;;;;;;;4.93;3.70;;;22.90;44.40;;;;;;10446772;28;20229;-75
2021/07/18 03:14:48;;;;;;;3.90;3.47;;;22.90;44.30;;;;;;10442151;28;20688;-75
2021/07/18 03:19:52;;;;;;;4.00;3.60;;;22.90;44.40;;;;;;10439965;28;20233;-75
2021/07/18 03:24:56;;;;;;;4.97;3.60;;;22.90;44.30;;;;;;10451567;28;20241;-75
2021/07/18 03:29:59;;;;;;;3.47;3.13;;;22.80;44.00;;;;;;10446598;28;20242;-75
2021/07/18 03:35:03;;;;;;;3.87;3.47;;;22.80;44.20;;;;;;10440976;28;20217;-74
2021/07/18 03:40:13;;;;;;;2.93;2.73;;;22.80;44.10;;;;;;10441149;28;20318;-75
2021/07/18 03:45:16;;;;;;;3.30;3.00;;;22.70;43.90;;;;;;10444441;28;20239;-69
2021/07/18 03:50:20;;;;;;;4.70;3.47;;;22.70;44.10;;;;;;10450215;28;20221;-70
2021/07/18 03:55:24;;;;;;;6.07;3.37;;;22.70;44.00;;;;;;10452841;28;20233;-70
2021/07/18 04:00:27;;;;;;;4.77;2.93;;;22.70;43.80;;;;;;10454988;28;20237;-70
2021/07/18 04:05:32;;;;;;;4.00;2.90;;;22.60;43.90;;;;;;10449083;28;20259;-70
2021/07/18 04:10:36;;;;;;;4.03;2.63;;;22.60;43.90;;;;;;10454702;28;20235;-70
2021/07/18 04:15:39;;;;;;;3.60;2.80;;;22.60;43.80;;;;;;10449173;28;20229;-70
2021/07/18 04:20:42;;;;;;;6.07;3.30;;;22.60;43.70;;;;;;10454906;28;20738;-70
2021/07/18 04:25:47;;;;;;;6.73;2.80;;;22.60;43.60;;;;;;10459013;28;20228;-70
2021/07/18 04:30:50;;;;;;;4.00;2.63;;;22.60;43.40;;;;;;10448338;28;20260;-70
2021/07/18 04:35:55;;;;;;;2.80;2.60;;;22.60;43.70;;;;;;10453354;28;20728;-70
2021/07/18 04:40:59;;;;;;;3.47;2.57;;;22.60;43.60;;;;;;10443288;28;20239;-70
2021/07/18 04:46:04;;;;;;;2.70;2.50;;;22.60;43.30;;;;;;10451895;28;20588;-71
2021/07/18 04:51:07;;;;;;;3.83;2.80;;;22.50;43.40;;;;;;10447242;28;20250;-70
2021/07/18 04:56:12;;;;;;;3.23;2.50;;;22.40;43.50;;;;;;10449637;28;20229;-70
2021/07/18 05:01:15;;;;;;;3.60;3.30;;;22.40;43.30;;;;;;10450539;28;20251;-70
2021/07/18 05:06:18;;;;;;;4.10;3.47;;;22.40;43.60;;;;;;10447681;28;20232;-70
2021/07/18 05:11:23;;;;;;;3.77;3.10;;;22.40;43.60;;;;;;10450788;28;20242;-70
2021/07/18 05:16:26;;;;;;;5.37;3.10;;;22.30;43.40;;;;;;10452728;28;20256;-70
2021/07/18 05:21:29;;;;;;;4.33;2.93;;;22.30;43.50;;;;;;10446633;28;20253;-70
2021/07/18 05:26:34;;;;;;;3.10;2.80;;;22.30;43.70;;;;;;10444842;28;20709;-70
2021/07/18 05:31:37;;;;;;;4.77;3.33;;;22.30;43.50;;;;;;10450308;28;20237;-70
2021/07/18 05:36:40;;;;;;;4.13;3.57;;;22.30;43.70;;;;;;10445983;28;20225;-70
2021/07/18 05:41:45;;;;;;;3.57;2.90;;;22.40;43.90;;;;;;10451023;28;20232;-70
2021/07/18 05:46:48;;;;;;;3.30;2.77;;;22.30;43.60;;;;;;10447469;28;20221;-70
2021/07/18 05:51:51;;;;;;;3.20;2.73;;;22.40;43.90;;;;;;10438084;28;20293;-70
2021/07/18 05:56:55;;;;;;;4.00;2.80;;;22.40;43.90;;;;;;10456407;28;20236;-70
2021/07/18 06:01:59;;;;;;;3.70;2.70;;;22.40;44.20;;;;;;10450490;28;20232;-70
2021/07/18 06:07:03;;;;;;;3.47;2.77;;;22.50;43.70;;;;;;10451584;28;20229;-70
2021/07/18 06:12:08;;;;;;;4.90;3.10;;;22.50;43.70;;;;;;10456300;28;20615;-70
2021/07/18 06:17:12;;;;;;;3.37;2.83;;;22.50;43.30;;;;;;10451312;28;20228;-70
2021/07/18 06:22:15;;;;;;;5.77;3.00;;;22.50;43.70;;;;;;10456111;28;20229;-70
2021/07/18 06:27:19;;;;;;;4.13;3.10;;;22.60;43.80;;;;;;10452494;28;20260;-70
2021/07/18 06:32:25;;;;;;;3.60;2.90;;;22.60;43.70;;;;;;10445414;28;20717;-70
2021/07/18 06:37:28;;;;;;;3.50;3.20;;;22.70;43.80;;;;;;10444593;28;20264;-70
2021/07/18 06:42:33;;;;;;;4.93;3.47;;;22.80;43.70;;;;;;10451688;28;20236;-70
2021/07/18 06:47:36;;;;;;;4.43;3.90;;;22.80;43.80;;;;;;10450812;28;20248;-70
2021/07/18 06:52:40;;;;;;;3.87;3.50;;;22.90;43.90;;;;;;10454806;28;20233;-70
2021/07/18 06:57:49;;;;;;;4.83;3.90;;;23.00;43.80;;;;;;10442726;28;20677;-70
2021/07/18 07:02:52;;;;;;;5.17;3.63;;;23.10;42.80;;;;;;10447893;28;20228;-69
2021/07/18 07:07:55;;;;;;;5.03;4.43;;;23.20;43.70;;;;;;10450984;28;20310;-69
2021/07/18 07:13:00;;;;;;;4.80;4.40;;;23.30;43.80;;;;;;10448780;28;20232;-75
2021/07/18 07:18:03;;;;;;;5.53;4.60;;;23.50;43.80;;;;;;10444167;28;20248;-75
2021/07/18 07:23:06;;;;;;;6.83;4.90;;;23.60;43.80;;;;;;10446824;28;20231;-74
2021/07/18 07:28:11;;;;;;;5.07;4.67;;;23.70;43.50;;;;;;10443312;28;20232;-75
2021/07/18 07:33:15;;;;;;;5.77;5.17;;;23.80;43.10;;;;;;10449105;28;20233;-75
2021/07/18 07:38:18;;;;;;;5.67;5.10;;;23.80;43.30;;;;;;10439572;28;20241;-75
2021/07/18 07:43:22;;;;;;;5.80;5.23;;;23.90;43.10;;;;;;10436321;28;20217;-75
2021/07/18 07:48:26;;;;;;;5.50;4.83;;;23.90;43.10;;;;;;10453463;28;20234;-75
2021/07/18 07:53:29;;;;;;;5.97;5.27;;;24.00;43.40;;;;;;10441355;28;20288;-68
2021/07/18 07:58:34;;;;;;;6.03;5.47;;;24.10;43.40;;;;;;10449167;28;20225;-68
2021/07/18 08:03:38;;;;;;;6.87;5.03;;;24.10;43.00;;;;;;10449927;28;20290;-70
2021/07/18 08:08:41;;;;;;;6.63;5.97;;;24.20;43.10;;;;;;10446397;28;20232;-70
2021/07/18 08:13:45;;;;;;;5.93;5.43;;;24.30;42.90;;;;;;10450723;28;20608;-69
2021/07/18 08:18:49;;;;;;;6.97;6.37;;;24.30;43.00;;;;;;10451157;28;20307;-70
2021/07/18 08:23:52;;;;;;;7.27;6.40;;;24.30;43.10;;;;;;10442179;28;20228;-70
2021/07/18 08:28:57;;;;;;;7.70;7.00;;;24.40;43.10;;;;;;10449588;28;20956;-70
2021/07/18 08:34:00;;;;;;;7.90;7.30;;;24.50;42.90;;;;;;10446425;28;20224;-70
2021/07/18 08:39:04;;;;;;;8.20;7.30;;;24.60;42.90;;;;;;10445357;28;20217;-70
2021/07/18 08:44:09;;;;;;;9.00;6.90;;;24.70;42.70;;;;;;10448633;28;20217;-70
2021/07/18 08:49:12;;;;;;;9.73;8.43;;;24.80;42.60;;;;;;10445272;28;20223;-70
2021/07/18 08:54:18;;;;;;;9.83;8.97;;;24.90;42.70;;;;;;10448527;28;20221;-70
2021/07/18 08:59:22;;;;;;;10.30;9.40;;;25.00;42.30;;;;;;10454233;28;20225;-70
2021/07/18 09:04:25;;;;;;;11.40;10.37;;;25.10;42.30;;;;;;10445568;28;20234;-70
2021/07/18 09:09:31;;;;;;;12.93;11.80;;;25.10;42.20;;;;;;10443184;28;20232;-70
2021/07/18 09:14:38;;;;;;;13.57;12.17;;;25.20;41.00;;;;;;10448092;28;20217;-70
2021/07/18 09:19:42;;;;;;;14.33;13.13;;;25.20;41.30;;;;;;10442599;28;20232;-70
2021/07/18 09:24:49;;;;;;;14.47;13.17;;;25.20;41.60;;;;;;10448945;28;20225;-70
2021/07/18 09:29:55;;;;;;;14.53;13.23;;;25.20;41.40;;;;;;10442415;28;20228;-70
2021/07/18 09:34:59;;;;;;;13.33;11.93;;;25.30;41.10;;;;;;10448085;28;20221;-70
2021/07/18 09:40:07;;;;;;;13.43;12.13;;;25.40;41.90;;;;;;10442241;28;20224;-71
2021/07/18 09:45:20;;;;;;;12.73;11.60;;;25.60;41.30;;;;;;10443047;28;20229;-70
2021/07/18 09:50:27;;;;;;;13.00;11.80;;;25.90;41.50;;;;;;10442584;28;20229;-70
2021/07/18 09:55:30;;;;;;;13.27;12.03;;;26.00;40.30;;;;;;10442291;28;20228;-69
2021/07/18 10:00:40;;;;;;;13.50;12.17;;;26.20;40.90;;;;;;10439287;28;20815;-70
2021/07/18 10:05:43;;;;;;;13.97;12.67;;;26.30;40.20;;;;;;10434887;28;20255;-70
2021/07/18 10:10:47;;;;;;;14.17;12.87;;;26.50;40.70;;;;;;10440531;28;20232;-70
2021/07/18 10:15:52;;;;;;;14.07;12.77;;;26.70;40.50;;;;;;10447444;28;20301;-70
2021/07/18 10:20:55;;;;;;;13.40;12.20;;;27.00;39.50;;;;;;10444157;28;20281;-70
2021/07/18 10:26:00;;;;;;;13.70;12.30;;;27.20;39.60;;;;;;10440211;28;20229;-70
2021/07/18 10:31:09;;;;;;;12.00;10.90;;;27.50;38.20;;;;;;10451363;28;20236;-70
2021/07/18 10:36:12;;;;;;;11.40;10.30;;;27.60;38.00;;;;;;10450521;28;20228;-70
2021/07/18 10:41:16;;;;;;;11.13;10.13;;;27.70;38.00;;;;;;10445498;28;20307;-69
2021/07/18 10:46:59;;;;;;;10.87;9.77;;;27.70;37.60;;;;;;10448523;28;20221;-70
2021/07/18 10:52:02;;;;;;;10.70;9.80;;;27.70;36.20;;;;;;10445351;28;20231;-69
2021/07/18 10:57:21;;;;;;;10.67;9.73;;;27.70;37.20;;;;;;10450513;28;20575;-69
2021/07/18 11:02:34;;;;;;;10.73;9.87;;;27.80;36.90;;;;;;10456673;28;20577;-69
2021/07/18 11:07:40;;;;;;;10.10;9.30;;;27.90;35.70;;;;;;10443817;28;20228;-70
2021/07/18 11:12:45;;;;;;;9.57;8.67;;;27.80;36.50;;;;;;10445066;28;20229;-70
2021/07/18 11:18:02;;;;;;;8.50;7.80;;;27.80;35.90;;;;;;10448987;28;20232;-70
2021/07/18 11:23:06;;;;;;;8.47;7.80;;;27.70;35.80;;;;;;10446532;28;20315;-70
2021/07/18 11:28:39;;;;;;;7.97;7.27;;;27.70;36.40;;;;;;10446235;28;20453;-70
2021/07/18 11:33:53;;;;;;;7.70;7.00;;;27.70;35.70;;;;;;10436692;28;20236;-70
2021/07/18 11:38:56;;;;;;;8.37;7.57;;;27.70;35.00;;;;;;10440144;28;20233;-70
2021/07/18 11:44:02;;;;;;;7.70;7.10;;;27.80;36.20;;;;;;10449264;28;20948;-70
2021/07/18 11:49:08;;;;;;;7.73;7.13;;;28.00;35.70;;;;;;10444181;28;20224;-70
2021/07/18 11:54:11;;;;;;;7.70;6.97;;;28.10;35.20;;;;;;10444596;28;21115;-70
2021/07/18 11:59:17;;;;;;;6.83;6.10;;;28.20;35.60;;;;;;10443431;28;20229;-70
2021/07/18 12:04:25;;;;;;;6.97;6.37;;;28.40;35.20;;;;;;10450765;28;21213;-70
2021/07/18 12:09:31;;;;;;;6.60;6.10;;;28.50;34.10;;;;;;10447012;28;20240;-70
2021/07/18 12:14:35;;;;;;;6.93;6.33;;;28.50;34.30;;;;;;10448289;28;20221;-69
2021/07/18 12:19:44;;;;;;;6.77;6.17;;;28.60;34.30;;;;;;10445317;28;20229;-70
2021/07/18 12:24:53;;;;;;;6.90;6.30;;;28.70;33.90;;;;;;10452127;28;20225;-69
2021/07/18 12:29:58;;;;;;;7.30;6.70;;;28.70;32.80;;;;;;10429992;28;20237;-67
2021/07/18 12:35:04;;;;;;;7.07;6.37;;;28.70;33.80;;;;;;10432924;28;20303;-67
2021/07/18 12:40:08;;;;;;;6.70;6.20;;;28.70;33.20;;;;;;10435299;28;20877;-68
2021/07/18 12:45:14;;;;;;;6.23;5.67;;;28.70;33.50;;;;;;10432071;28;20220;-67
2021/07/18 12:50:34;;;;;;;6.63;6.13;;;28.80;32.90;;;;;;10431547;28;20236;-67
2021/07/18 12:55:41;;;;;;;6.07;5.47;;;28.90;32.50;;;;;;10430723;28;20220;-68
2021/07/18 13:00:47;;;;;;;6.33;5.83;;;29.00;32.60;;;;;;10438143;28;20247;-67
2021/07/18 13:05:52;;;;;;;6.60;5.90;;;29.00;33.20;;;;;;10442905;28;20220;-67
2021/07/18 13:10:56;;;;;;;6.30;5.70;;;29.10;31.90;;;;;;10440726;28;20614;-67
2021/07/18 13:16:09;;;;;;;6.40;5.80;;;29.20;32.80;;;;;;10437594;28;20736;-67
2021/07/18 13:21:18;;;;;;;5.97;5.47;;;29.30;31.10;;;;;;10446791;28;20212;-70
2021/07/18 13:26:32;;;;;;;5.87;5.37;;;29.30;31.10;;;;;;10442216;28;20236;-70
2021/07/18 13:31:35;;;;;;;5.90;5.40;;;29.30;31.10;;;;;;10445500;28;20235;-70
2021/07/18 13:36:40;;;;;;;8.47;5.53;;;29.40;31.40;;;;;;10443634;28;20232;-70
2021/07/18 13:42:06;;;;;;;5.73;5.17;;;29.40;31.10;;;;;;10445193;28;20229;-70
2021/07/18 13:47:10;;;;;;;6.03;5.53;;;29.40;31.10;;;;;;10456290;28;20815;-71
2021/07/18 13:52:17;;;;;;;5.67;5.17;;;29.40;31.10;;;;;;10442573;28;20230;-70
2021/07/18 13:57:21;;;;;;;5.20;4.80;;;29.50;29.30;;;;;;10447552;28;20222;-70
2021/07/18 14:02:24;;;;;;;6.10;4.83;;;29.50;30.70;;;;;;10447622;28;20240;-71
2021/07/18 14:07:29;;;;;;;5.20;4.73;;;29.50;30.00;;;;;;10444974;28;20225;-71
2021/07/18 14:12:32;;;;;;;5.13;4.63;;;29.50;29.30;;;;;;10448446;28;20739;-70
2021/07/18 14:17:36;;;;;;;4.80;4.40;;;29.50;29.70;;;;;;10447413;28;20228;-70
2021/07/18 14:22:40;;;;;;;5.47;4.80;;;29.50;29.60;;;;;;10450899;28;20232;-71
2021/07/18 14:27:46;;;;;;;5.23;4.73;;;29.60;29.30;;;;;;10456812;28;20228;-71
2021/07/18 14:32:50;;;;;;;4.70;4.30;;;29.60;28.70;;;;;;10455610;28;20713;-71
2021/07/18 14:37:55;;;;;;;4.70;4.30;;;29.60;29.10;;;;;;10442862;28;20229;-70
2021/07/18 14:42:58;;;;;;;4.87;4.47;;;29.70;28.70;;;;;;10445855;28;20229;-73
2021/07/18 14:48:01;;;;;;;5.30;4.30;;;29.70;28.50;;;;;;10449470;28;20240;-68
2021/07/18 14:53:07;;;;;;;4.50;4.20;;;29.70;28.60;;;;;;10453831;28;20228;-68
2021/07/18 14:58:11;;;;;;;4.20;3.87;;;29.70;27.90;;;;;;10445180;28;20225;-68
2021/07/18 15:03:14;;;;;;;4.63;4.13;;;29.70;28.20;;;;;;10451878;28;20235;-67
2021/07/18 15:08:19;;;;;;;4.40;4.00;;;29.80;28.00;;;;;;10446346;28;20228;-68
2021/07/18 15:13:22;;;;;;;5.60;4.33;;;29.90;27.50;;;;;;10456892;28;20719;-67
2021/07/18 15:18:25;;;;;;;4.20;3.90;;;29.90;27.90;;;;;;10453737;28;20225;-67
2021/07/18 15:23:30;;;;;;;4.93;3.73;;;30.10;27.70;;;;;;10448096;28;20240;-69
2021/07/18 15:28:33;;;;;;;4.40;4.00;;;30.10;26.90;;;;;;10448779;28;20224;-73
2021/07/18 15:33:36;;;;;;;4.47;3.83;;;30.20;27.20;;;;;;10450861;28;20240;-73
2021/07/18 15:38:41;;;;;;;5.70;4.07;;;30.20;26.90;;;;;;10449610;28;20228;-73
2021/07/18 15:43:44;;;;;;;6.33;4.60;;;30.30;26.30;;;;;;10444556;28;20243;-73
2021/07/18 15:48:47;;;;;;;6.10;4.60;;;30.30;26.40;;;;;;10451881;28;20236;-67
2021/07/18 15:53:52;;;;;;;4.70;4.30;;;30.40;26.70;;;;;;10447151;28;20716;-68
2021/07/18 15:58:55;;;;;;;4.77;4.20;;;30.40;25.70;;;;;;10451592;28;20265;-69
2021/07/18 16:03:58;;;;;;;5.33;4.80;;;30.50;26.50;;;;;;10453780;28;20249;-67
2021/07/18 16:09:03;;;;;;;5.10;4.60;;;30.60;26.00;;;;;;10438915;28;20725;-67
2021/07/18 16:14:06;;;;;;;16.83;12.13;;;30.60;24.90;;;;;;10448360;28;20228;-68
2021/07/18 16:19:09;;;;;;;20.87;18.97;;;30.60;25.60;;;;;;10449155;28;20727;-68
2021/07/18 16:24:14;;;;;;;7.97;6.87;;;30.60;25.80;;;;;;10439918;28;20228;-68
2021/07/18 16:29:17;;;;;;;8.03;6.47;;;30.60;25.10;;;;;;10450079;28;20222;-68
2021/07/18 16:34:21;;;;;;;6.60;6.00;;;30.60;25.20;;;;;;10434033;28;20221;-68
2021/07/18 16:39:25;;;;;;;6.20;5.60;;;30.60;24.80;;;;;;10452193;28;20252;-68
2021/07/18 16:44:28;;;;;;;7.37;5.73;;;30.60;24.30;;;;;;10442866;28;20611;-68
2021/07/18 16:49:32;;;;;;;8.67;7.13;;;30.70;25.00;;;;;;10444326;28;20286;-68
2021/07/18 16:54:36;;;;;;;7.40;6.70;;;30.70;24.50;;;;;;10441744;28;20220;-73
2021/07/18 16:59:41;;;;;;;8.73;7.07;;;30.60;24.10;;;;;;10447969;28;20740;-73
2021/07/18 17:04:44;;;;;;;7.27;6.67;;;30.60;24.60;;;;;;10441889;28;20605;-73
2021/07/18 17:09:48;;;;;;;8.33;7.40;;;30.60;24.40;;;;;;10440128;28;20224;-73
2021/07/18 17:14:55;;;;;;;8.53;7.83;;;30.60;23.90;;;;;;10447260;28;20233;-73
2021/07/18 17:19:58;;;;;;;8.43;7.73;;;30.60;24.30;;;;;;10445792;28;20240;-73
2021/07/18 17:25:03;;;;;;;9.00;7.70;;;30.60;24.40;;;;;;10446854;28;20221;-75
2021/07/18 17:30:08;;;;;;;10.63;9.63;;;30.50;24.00;;;;;;10444220;28;20710;-74
2021/07/18 17:35:27;;;;;;;11.77;10.67;;;30.50;24.10;;;;;;10440528;28;20236;-74
2021/07/18 17:40:32;;;;;;;12.40;11.30;;;30.40;24.30;;;;;;10452229;28;20602;-74
2021/07/18 17:45:40;;;;;;;13.00;11.80;;;30.40;23.90;;;;;;10432848;28;20217;-75
2021/07/18 17:50:43;;;;;;;15.03;13.53;;;30.40;24.40;;;;;;10449055;28;20321;-76
2021/07/18 17:55:47;;;;;;;14.23;12.93;;;30.30;24.40;;;;;;10458513;28;20231;-75
2021/07/18 18:00:53;;;;;;;15.60;14.20;;;30.30;24.10;;;;;;10448808;28;20233;-74
2021/07/18 18:05:56;;;;;;;15.67;14.07;;;30.20;24.50;;;;;;10455634;28;20224;-74
2021/07/18 18:11:02;;;;;;;15.40;14.00;;;30.10;24.50;;;;;;10460551;28;20244;-75
2021/07/18 18:16:06;;;;;;;15.97;14.47;;;30.00;24.40;;;;;;10459673;28;20241;-74
2021/07/18 18:21:09;;;;;;;16.57;15.07;;;29.90;24.60;;;;;;10460690;28;20267;-75
2021/07/18 18:26:14;;;;;;;17.30;15.70;;;29.90;24.60;;;;;;10461300;28;20416;-74
2021/07/18 18:31:17;;;;;;;16.03;14.63;;;29.80;24.40;;;;;;10462995;28;20228;-74
2021/07/18 18:36:20;;;;;;;17.47;15.87;;;29.60;24.60;;;;;;10456201;28;20306;-74
2021/07/18 18:41:25;;;;;;;17.60;16.00;;;29.40;24.80;;;;;;10460647;28;20220;-74
2021/07/18 18:46:28;;;;;;;17.50;15.87;;;29.30;25.00;;;;;;10455807;28;20862;-75
2021/07/18 18:51:31;;;;;;;17.17;15.60;;;29.10;25.30;;;;;;10453159;28;20239;-72
2021/07/18 18:56:40;;;;;;;16.87;15.17;;;28.90;25.70;;;;;;10458268;28;20217;-73
2021/07/18 19:01:44;;;;;;;15.10;13.70;;;28.80;25.80;;;;;;10455590;28;20238;-73
2021/07/18 19:06:48;;;;;;;14.40;13.10;;;28.60;26.10;;;;;;10455751;28;20645;-73
2021/07/18 19:11:53;;;;;;;13.97;12.67;;;28.60;26.40;;;;;;10456989;28;20227;-73
2021/07/18 19:16:58;;;;;;;13.73;12.53;;;28.50;26.60;;;;;;10438953;28;20585;-73
2021/07/18 19:22:02;;;;;;;14.00;12.70;;;28.40;26.90;;;;;;10448550;28;20250;-72
2021/07/18 19:27:08;;;;;;;14.63;13.30;;;28.20;27.10;;;;;;10446692;28;20221;-74
2021/07/18 19:32:11;;;;;;;13.60;12.37;;;28.10;27.50;;;;;;10455910;28;20745;-73
2021/07/18 19:37:14;;;;;;;14.03;12.70;;;28.00;27.70;;;;;;10445779;28;20225;-74
2021/07/18 19:42:22;;;;;;;14.30;12.90;;;27.80;27.80;;;;;;10445449;28;20601;-73
2021/07/18 19:47:26;;;;;;;12.87;11.60;;;27.70;28.10;;;;;;10450104;28;20766;-74
2021/07/18 19:52:29;;;;;;;13.33;12.13;;;27.60;28.10;;;;;;10443662;28;20228;-74
2021/07/18 19:57:33;;;;;;;12.93;11.63;;;27.60;28.30;;;;;;10447110;28;20245;-74
2021/07/18 20:02:37;;;;;;;12.17;10.97;;;27.50;28.50;;;;;;10450095;28;20228;-73
2021/07/18 20:07:41;;;;;;;13.50;12.20;;;27.40;28.60;;;;;;10444520;28;20758;-73
2021/07/18 20:12:46;;;;;;;13.80;12.50;;;27.30;28.90;;;;;;10443136;28;20809;-73
2021/07/18 20:17:49;;;;;;;14.10;12.80;;;27.20;29.00;;;;;;10449526;28;20232;-74
2021/07/18 20:22:52;;;;;;;13.53;12.20;;;27.10;29.00;;;;;;10449582;28;20228;-73
2021/07/18 20:27:57;;;;;;;14.57;13.17;;;27.00;29.00;;;;;;10445559;28;20271;-75
2021/07/18 20:33:00;;;;;;;12.63;11.37;;;26.90;29.70;;;;;;10454693;28;21041;-75
2021/07/18 20:38:04;;;;;;;12.80;11.50;;;26.80;29.60;;;;;;10434539;28;20796;-74
2021/07/18 20:43:08;;;;;;;13.60;12.37;;;26.70;29.60;;;;;;10431608;28;20233;-75
2021/07/18 20:48:12;;;;;;;13.90;12.57;;;26.60;29.50;;;;;;10435600;28;20233;-75
2021/07/18 20:53:15;;;;;;;14.07;12.67;;;26.40;29.40;;;;;;10433614;28;20233;-75
2021/07/18 20:58:20;;;;;;;12.83;11.50;;;26.30;29.40;;;;;;10440481;28;20221;-75
2021/07/18 21:03:23;;;;;;;11.33;10.30;;;26.20;29.90;;;;;;10440275;28;20237;-75
2021/07/18 21:08:27;;;;;;;12.27;11.07;;;26.00;29.90;;;;;;10435619;28;20303;-75
2021/07/18 21:13:32;;;;;;;11.30;10.20;;;25.90;30.00;;;;;;10433787;28;20243;-75
2021/07/18 21:18:36;;;;;;;11.93;10.73;;;25.80;30.30;;;;;;10440204;28;21183;-75
2021/07/18 21:23:39;;;;;;;11.70;10.60;;;25.70;30.30;;;;;;10432637;28;20698;-75
2021/07/18 21:28:44;;;;;;;12.67;11.47;;;25.50;30.40;;;;;;10432674;28;20596;-75
2021/07/18 21:33:50;;;;;;;12.90;11.60;;;25.20;31.00;;;;;;10435870;28;20224;-75
2021/07/18 21:38:53;;;;;;;12.30;11.10;;;25.10;30.90;;;;;;10433807;28;20311;-75
2021/07/18 21:43:58;;;;;;;11.10;10.10;;;24.80;31.10;;;;;;10441251;28;20756;-75
2021/07/18 21:49:01;;;;;;;11.43;10.33;;;24.60;31.90;;;;;;10441709;28;20258;-75
2021/07/18 21:54:05;;;;;;;10.77;9.87;;;24.30;31.90;;;;;;10438462;28;20232;-75
2021/07/18 21:59:09;;;;;;;12.97;10.10;;;24.10;32.00;;;;;;10440792;28;20223;-74
2021/07/18 22:04:13;;;;;;;13.60;10.57;;;23.90;32.90;;;;;;10441183;28;20228;-75
2021/07/18 22:09:16;;;;;;;11.63;10.53;;;23.70;32.50;;;;;;10438826;28;21184;-75
2021/07/18 22:14:20;;;;;;;10.63;9.43;;;23.50;32.80;;;;;;10430448;28;20221;-75
2021/07/18 22:19:24;;;;;;;10.73;9.53;;;23.40;33.40;;;;;;10442953;28;20279;-75
2021/07/18 22:24:27;;;;;;;10.03;9.03;;;23.20;33.10;;;;;;10432245;28;20236;-75
2021/07/18 22:29:31;;;;;;;10.30;9.33;;;23.20;33.50;;;;;;10439862;28;20245;-75
2021/07/18 22:34:35;;;;;;;10.20;9.20;;;23.20;34.30;;;;;;10434497;28;20235;-75
2021/07/18 22:39:38;;;;;;;11.23;10.13;;;23.20;33.90;;;;;;10447543;28;20232;-75
2021/07/18 22:44:43;;;;;;;11.70;10.50;;;23.20;34.00;;;;;;10442391;28;20228;-69
2021/07/18 22:49:47;;;;;;;11.47;10.37;;;23.20;34.60;;;;;;10446038;28;20240;-69
2021/07/18 22:54:50;;;;;;;11.77;10.57;;;23.10;34.00;;;;;;10443462;28;20221;-70
2021/07/18 22:59:54;;;;;;;11.17;10.13;;;23.00;34.10;;;;;;10444617;28;20225;-69
2021/07/18 23:04:57;;;;;;;11.20;10.10;;;22.90;34.80;;;;;;10451958;28;20225;-69
2021/07/18 23:10:01;;;;;;;9.17;8.40;;;22.80;34.40;;;;;;10446108;28;20239;-69
2021/07/18 23:15:08;;;;;;;8.90;8.00;;;22.80;34.50;;;;;;10446810;28;20225;-73
2021/07/18 23:20:13;;;;;;;8.23;7.43;;;22.80;35.20;;;;;;10450682;28;20239;-73
2021/07/18 23:25:18;;;;;;;9.40;8.37;;;22.80;34.80;;;;;;10442287;28;20232;-73
2021/07/18 23:30:23;;;;;;;9.40;7.67;;;22.80;35.10;;;;;;10446430;28;20242;-73
2021/07/18 23:35:28;;;;;;;8.17;7.40;;;22.80;34.90;;;;;;10443241;28;20226;-70
2021/07/18 23:40:31;;;;;;;8.27;6.93;;;22.80;34.60;;;;;;10455663;28;20248;-70
2021/07/18 23:45:36;;;;;;;9.67;8.27;;;22.80;34.70;;;;;;10447459;28;20227;-70
2021/07/18 23:50:39;;;;;;;7.00;6.40;;;22.80;35.00;;;;;;10444748;28;20220;-70
2021/07/18 23:55:42;;;;;;;9.17;6.53;;;22.70;34.50;;;;;;10453735;28;20224;-69
